createdAt,value
2022-12-18T00:04:26.923Z,9.30
2022-12-18T00:09:40.274Z,9.90
2022-12-18T00:14:51.877Z,8.80
2022-12-18T00:20:00.030Z,8.20
2022-12-18T00:25:09.157Z,7.70
2022-12-18T00:30:18.145Z,9.10
2022-12-18T00:35:26.818Z,6.80
2022-12-18T00:40:34.840Z,8.10
2022-12-18T00:45:43.082Z,7.80
2022-12-18T00:50:53.297Z,8.40
2022-12-18T00:56:01.621Z,8.60
2022-12-18T01:01:11.052Z,7.40
2022-12-18T01:06:19.852Z,8.00
2022-12-18T01:11:28.888Z,9.00
2022-12-18T01:16:37.452Z,8.80
2022-12-18T01:21:46.329Z,9.90
2022-12-18T01:26:55.561Z,9.00
2022-12-18T01:32:04.372Z,9.10
2022-12-18T01:37:12.875Z,8.20
2022-12-18T01:42:21.093Z,8.60
2022-12-18T01:47:34.785Z,7.90
2022-12-18T01:52:49.647Z,7.10
2022-12-18T01:58:01.643Z,8.00
2022-12-18T02:03:09.854Z,6.80
2022-12-18T02:08:23.444Z,6.30
2022-12-18T02:13:41.944Z,6.70
2022-12-18T02:18:54.778Z,5.70
2022-12-18T02:24:20.905Z,6.50
2022-12-18T02:29:33.288Z,6.80
2022-12-18T02:34:45.836Z,6.70
2022-12-18T02:39:59.744Z,7.00
2022-12-18T02:45:09.610Z,8.40
2022-12-18T02:50:23.775Z,8.40
2022-12-18T02:55:46.259Z,7.70
2022-12-18T03:01:02.684Z,7.80
2022-12-18T03:06:16.516Z,8.20
2022-12-18T03:11:45.382Z,7.70
2022-12-18T03:16:58.036Z,8.20
2022-12-18T03:22:09.985Z,7.30
2022-12-18T03:27:29.098Z,6.80
2022-12-18T03:32:43.494Z,6.60
2022-12-18T03:37:52.377Z,5.60
2022-12-18T03:43:07.162Z,6.50
2022-12-18T03:48:24.755Z,5.50
2022-12-18T03:53:41.356Z,5.20
2022-12-18T03:58:53.032Z,5.10
2022-12-18T04:04:06.545Z,5.20
2022-12-18T04:09:16.997Z,5.90
2022-12-18T04:14:28.151Z,6.00
2022-12-18T04:19:37.989Z,4.90
2022-12-18T04:24:46.406Z,4.60
2022-12-18T04:30:01.467Z,5.40
2022-12-18T04:35:13.373Z,4.30
2022-12-18T04:40:23.647Z,4.80
2022-12-18T04:45:32.551Z,5.20
2022-12-18T04:50:40.983Z,5.20
2022-12-18T04:55:49.341Z,5.90
2022-12-18T05:00:57.550Z,6.50
2022-12-18T05:06:06.029Z,7.30
2022-12-18T05:11:17.074Z,5.20
2022-12-18T05:16:25.584Z,4.70
2022-12-18T05:21:33.858Z,5.60
2022-12-18T05:26:42.413Z,5.20
2022-12-18T05:31:50.631Z,5.40
2022-12-18T05:36:59.248Z,5.50
2022-12-18T05:42:07.885Z,6.00
2022-12-18T05:47:16.357Z,7.40
2022-12-18T05:52:24.495Z,6.70
2022-12-18T05:57:33.336Z,6.10
2022-12-18T06:02:41.718Z,6.00
2022-12-18T06:07:50.315Z,7.20
2022-12-18T06:12:58.572Z,7.20
2022-12-18T06:18:07.291Z,7.80
2022-12-18T06:23:15.801Z,7.10
2022-12-18T06:28:24.634Z,7.00
2022-12-18T06:33:32.982Z,6.90
2022-12-18T06:38:43.759Z,6.40
2022-12-18T06:43:54.618Z,7.00
2022-12-18T06:49:07.065Z,6.40
2022-12-18T06:54:15.315Z,7.20
2022-12-18T06:59:23.937Z,7.50
2022-12-18T07:04:34.924Z,8.20
2022-12-18T07:09:43.167Z,7.90
2022-12-18T07:14:51.589Z,7.60
2022-12-18T07:20:00.202Z,8.20
2022-12-18T07:25:10.110Z,8.60
2022-12-18T07:30:18.606Z,7.30
2022-12-18T07:35:26.789Z,7.00
2022-12-18T07:40:35.361Z,8.10
2022-12-18T07:45:43.768Z,7.00
2022-12-18T07:50:52.400Z,7.70
2022-12-18T07:56:28.597Z,7.70
2022-12-18T08:01:31.956Z,6.70
2022-12-18T08:06:42.619Z,7.20
2022-12-18T08:11:55.762Z,7.10
2022-12-18T08:17:03.929Z,7.00
2022-12-18T08:22:13.198Z,6.80
2022-12-18T08:27:29.451Z,7.30
2022-12-18T08:32:39.747Z,6.80
2022-12-18T08:37:48.333Z,7.10
2022-12-18T08:43:14.445Z,7.00
2022-12-18T08:48:22.830Z,6.20
2022-12-18T08:53:35.802Z,7.70
2022-12-18T08:58:44.671Z,7.50
2022-12-18T09:03:56.067Z,7.40
2022-12-18T09:09:04.316Z,7.00
2022-12-18T09:14:14.017Z,6.40
2022-12-18T09:19:22.210Z,6.20
2022-12-18T09:24:30.452Z,6.20
2022-12-18T09:29:39.041Z,7.00
2022-12-18T09:34:47.104Z,6.10
2022-12-18T09:39:55.681Z,5.40
2022-12-18T09:45:05.753Z,6.60
2022-12-18T09:50:28.025Z,7.00
2022-12-18T10:00:54.152Z,6.90
2022-12-18T10:06:11.102Z,6.90
2022-12-18T10:11:40.424Z,7.40
2022-12-18T10:17:04.078Z,6.90
2022-12-18T10:22:22.500Z,7.20
2022-12-18T10:27:33.729Z,6.70
2022-12-18T10:32:42.209Z,6.80
2022-12-18T10:38:06.773Z,5.90
2022-12-18T10:43:18.744Z,6.30
2022-12-18T10:48:27.414Z,7.40
2022-12-18T10:53:38.279Z,6.70
2022-12-18T10:58:58.289Z,7.30
2022-12-18T11:04:12.417Z,9.20
2022-12-18T11:09:26.619Z,7.60
2022-12-18T11:14:43.503Z,9.10
2022-12-18T11:20:00.641Z,8.60
2022-12-18T11:25:36.619Z,8.40
2022-12-18T11:30:45.865Z,9.90
2022-12-18T11:35:56.681Z,8.90
2022-12-18T11:41:14.440Z,9.10
2022-12-18T11:46:34.165Z,9.50
2022-12-18T11:51:49.075Z,10.60
2022-12-18T11:57:10.322Z,10.30
2022-12-18T12:02:41.091Z,10.70
2022-12-18T12:07:59.947Z,10.00
2022-12-18T12:13:26.477Z,11.80
2022-12-18T12:18:48.485Z,12.50
2022-12-18T12:24:05.481Z,12.40
2022-12-18T12:29:33.035Z,13.90
2022-12-18T12:34:47.753Z,15.10
2022-12-18T12:39:57.585Z,15.10
2022-12-18T12:45:08.347Z,14.50
2022-12-18T12:50:22.096Z,15.50
2022-12-18T12:55:32.180Z,14.20
2022-12-18T13:00:50.440Z,13.90
2022-12-18T13:06:03.439Z,14.40
2022-12-18T13:12:00.451Z,15.80
2022-12-18T13:17:37.899Z,15.00
2022-12-18T13:22:49.798Z,16.00
2022-12-18T13:28:16.191Z,15.90
2022-12-18T13:39:38.701Z,15.60
2022-12-18T13:44:48.698Z,16.70
2022-12-18T13:49:57.748Z,16.00
2022-12-18T13:55:10.810Z,16.50
2022-12-18T14:00:33.547Z,15.60
2022-12-18T14:10:54.932Z,15.60
2022-12-18T14:16:06.954Z,16.10
2022-12-18T14:21:23.650Z,14.60
2022-12-18T14:26:34.581Z,17.70
2022-12-18T14:31:42.912Z,17.30
2022-12-18T14:36:58.392Z,14.40
2022-12-18T14:42:07.118Z,18.20
2022-12-18T14:47:20.838Z,19.00
2022-12-18T14:52:34.764Z,18.10
2022-12-18T14:57:44.863Z,16.90
2022-12-18T15:02:56.740Z,17.20
2022-12-18T15:08:05.536Z,18.50
2022-12-18T15:13:26.023Z,17.00
2022-12-18T15:18:37.897Z,16.70
2022-12-18T15:23:52.528Z,18.50
2022-12-18T15:29:04.279Z,19.90
2022-12-18T15:34:25.210Z,17.10
2022-12-18T15:39:33.545Z,16.20
2022-12-18T15:44:42.348Z,17.20
2022-12-18T15:49:51.138Z,17.40
2022-12-18T15:55:19.021Z,17.00
2022-12-18T16:00:28.064Z,19.40
2022-12-18T16:05:36.857Z,17.90
2022-12-18T16:10:45.555Z,19.60
2022-12-18T16:15:54.267Z,18.10
2022-12-18T16:21:03.520Z,20.80
2022-12-18T16:26:12.883Z,19.80
2022-12-18T16:31:21.112Z,18.00
2022-12-18T16:37:58.797Z,18.00
2022-12-18T16:43:39.466Z,25.10
2022-12-18T16:48:48.165Z,22.70
2022-12-18T16:53:57.517Z,26.60
2022-12-18T16:59:08.335Z,22.00
2022-12-18T17:04:16.774Z,21.80
2022-12-18T17:09:27.246Z,23.60
2022-12-18T17:14:37.013Z,22.70
2022-12-18T17:19:45.624Z,23.10
2022-12-18T17:24:54.299Z,23.40
2022-12-18T17:30:02.431Z,23.40
2022-12-18T17:35:11.848Z,22.30
2022-12-18T17:40:20.404Z,23.20
2022-12-18T17:45:29.477Z,23.70
2022-12-18T17:50:39.010Z,24.00
2022-12-18T17:55:55.251Z,23.80
2022-12-18T18:01:07.485Z,21.40
2022-12-18T18:11:43.857Z,20.70
2022-12-18T18:16:54.042Z,22.80
2022-12-18T18:22:04.753Z,21.80
2022-12-18T18:27:13.606Z,23.00
2022-12-18T18:32:21.989Z,20.80
2022-12-18T18:37:30.242Z,22.70
2022-12-18T18:42:38.881Z,23.30
2022-12-18T18:47:47.168Z,24.20
2022-12-18T18:52:56.763Z,20.90
2022-12-18T18:58:05.571Z,20.70
2022-12-18T19:03:15.810Z,23.20
2022-12-18T19:08:24.665Z,21.80
2022-12-18T19:13:35.264Z,19.10
2022-12-18T19:18:42.990Z,20.50
2022-12-18T19:23:51.982Z,19.70
2022-12-18T19:29:04.860Z,21.20
2022-12-18T19:34:14.071Z,19.50
2022-12-18T19:39:23.303Z,22.60
2022-12-18T19:44:31.472Z,20.60
2022-12-18T19:49:40.358Z,21.00
2022-12-18T19:54:49.319Z,17.90
2022-12-18T19:59:57.739Z,19.50
2022-12-18T20:05:06.620Z,16.80
2022-12-18T20:10:17.770Z,17.20
2022-12-18T20:15:27.490Z,16.50
2022-12-18T20:20:36.368Z,17.00
2022-12-18T20:25:45.143Z,15.60
2022-12-18T20:30:53.668Z,16.00
2022-12-18T20:36:07.739Z,15.70
2022-12-18T20:41:21.031Z,18.20
2022-12-18T20:46:29.566Z,16.90
2022-12-18T20:51:37.803Z,18.30
2022-12-18T20:56:46.459Z,17.70
2022-12-18T21:01:59.062Z,20.20
2022-12-18T21:07:07.515Z,19.80
2022-12-18T21:12:40.239Z,21.10
2022-12-18T21:17:55.215Z,20.90
2022-12-18T21:23:14.277Z,19.70
2022-12-18T21:28:26.834Z,20.10
2022-12-18T21:33:34.942Z,20.60
2022-12-18T21:38:43.204Z,20.30
2022-12-18T21:44:09.517Z,20.30
2022-12-18T21:49:21.705Z,21.20
2022-12-18T21:54:31.200Z,18.60
2022-12-18T21:59:42.426Z,18.50
2022-12-18T22:04:51.201Z,21.90
2022-12-18T22:09:59.568Z,20.00
2022-12-18T22:15:11.425Z,17.80
2022-12-18T22:25:28.947Z,19.20
2022-12-18T22:30:37.316Z,17.80
2022-12-18T22:35:45.929Z,19.30
2022-12-18T22:40:54.801Z,20.80
2022-12-18T22:46:12.500Z,17.30
2022-12-18T22:51:22.058Z,20.70
2022-12-18T22:56:30.305Z,21.50
2022-12-18T23:01:38.964Z,20.70
2022-12-18T23:06:48.903Z,19.70
2022-12-18T23:11:57.270Z,17.70
2022-12-18T23:17:05.344Z,17.10
2022-12-18T23:22:13.914Z,16.40
2022-12-18T23:27:22.227Z,16.20
2022-12-18T23:32:30.846Z,18.60
2022-12-18T23:43:10.304Z,14.90
2022-12-18T23:48:18.574Z,16.80
2022-12-18T23:53:27.161Z,17.40
2022-12-18T23:58:35.340Z,17.50
